createdAt,value
2023-04-10T00:00:02.193Z,1031.89
2023-04-10T00:10:00.983Z,1031.82
2023-04-10T00:20:01.254Z,1031.77
2023-04-10T00:30:01.134Z,1031.70
2023-04-10T00:40:05.026Z,1031.61
2023-04-10T00:50:01.316Z,1031.51
2023-04-10T01:00:02.898Z,1031.42
2023-04-10T01:10:03.101Z,1031.43
2023-04-10T01:20:01.269Z,1031.50
2023-04-10T01:30:01.081Z,1031.50
2023-04-10T01:40:01.255Z,1031.54
2023-04-10T01:50:02.995Z,1031.46
2023-04-10T02:00:03.335Z,1031.42
2023-04-10T02:10:01.022Z,1031.44
2023-04-10T02:20:01.034Z,1031.41
2023-04-10T02:30:01.896Z,1031.37
2023-04-10T02:40:01.255Z,1031.38
2023-04-10T02:50:01.173Z,1031.51
2023-04-10T03:00:01.230Z,1031.53
2023-04-10T03:10:02.167Z,1031.50
2023-04-10T03:20:01.051Z,1031.50
2023-04-10T03:30:01.761Z,1031.43
2023-04-10T03:40:01.439Z,1031.42
2023-04-10T03:50:01.128Z,1031.41
2023-04-10T04:00:01.074Z,1031.45
2023-04-10T04:10:01.826Z,1031.46
2023-04-10T04:20:01.061Z,1031.41
2023-04-10T04:30:00.248Z,1031.42
2023-04-10T04:40:01.222Z,1031.45
2023-04-10T04:50:01.263Z,1031.45
2023-04-10T05:00:00.975Z,1031.44
2023-04-10T05:10:02.341Z,1031.49
2023-04-10T05:20:01.008Z,1031.50
2023-04-10T05:30:01.283Z,1031.53
2023-04-10T05:40:01.002Z,1031.57
2023-04-10T05:50:01.490Z,1031.52
2023-04-10T06:00:00.996Z,1031.53
2023-04-10T06:10:01.284Z,1031.47
2023-04-10T06:20:01.494Z,1031.47
2023-04-10T06:30:01.148Z,1031.39
2023-04-10T06:40:01.266Z,1031.41
2023-04-10T06:50:01.316Z,1031.32
2023-04-10T07:00:00.779Z,1031.36
2023-04-10T07:10:01.263Z,1031.26
2023-04-10T07:20:01.336Z,1031.29
2023-04-10T07:30:03.646Z,1031.31
2023-04-10T07:40:02.138Z,1031.24
2023-04-10T07:50:03.716Z,1031.15
2023-04-10T08:00:02.124Z,1031.14
2023-04-10T08:10:01.171Z,1030.99
2023-04-10T08:20:00.843Z,1030.90
2023-04-10T08:30:02.162Z,1030.87
2023-04-10T08:40:01.972Z,1030.85
2023-04-10T08:50:01.074Z,1030.75
2023-04-10T09:00:04.364Z,1030.64
2023-04-10T09:10:00.913Z,1030.53
2023-04-10T09:20:01.652Z,1030.30
2023-04-10T09:30:01.316Z,1030.16
2023-04-10T09:40:00.833Z,1030.08
2023-04-10T09:50:02.307Z,1029.87
2023-04-10T10:00:01.351Z,1029.81
2023-04-10T10:10:00.880Z,1029.66
2023-04-10T10:20:01.013Z,1029.51
2023-04-10T10:30:03.120Z,1029.37
2023-04-10T10:40:02.303Z,1029.29
2023-04-10T10:50:01.238Z,1029.06
2023-04-10T11:00:01.164Z,1028.94
2023-04-10T11:10:01.094Z,1028.83
2023-04-10T11:20:01.237Z,1028.66
2023-04-10T11:30:01.321Z,1028.55
2023-04-10T11:40:00.802Z,1028.48
2023-04-10T11:50:01.322Z,1028.25
2023-04-10T12:00:01.276Z,1028.16
2023-04-10T12:10:00.950Z,1027.93
2023-04-10T12:20:01.200Z,1027.75
2023-04-10T12:30:01.698Z,1027.55
2023-04-10T12:40:01.113Z,1027.52
2023-04-10T13:00:00.851Z,1027.18
2023-04-10T13:10:01.302Z,1026.86
2023-04-10T13:20:03.013Z,1026.56
2023-04-10T13:30:01.066Z,1026.35
2023-04-10T13:40:00.829Z,1026.14
2023-04-10T13:50:01.091Z,1025.94
2023-04-10T14:00:01.027Z,1025.84
2023-04-10T14:10:01.799Z,1025.59
2023-04-10T14:20:01.021Z,1025.50
2023-04-10T14:30:00.793Z,1025.40
2023-04-10T14:40:00.878Z,1025.35
2023-04-10T14:50:02.824Z,1025.06
2023-04-10T15:00:00.816Z,1024.92
2023-04-10T15:10:02.273Z,1024.89
2023-04-10T15:20:01.803Z,1024.58
2023-04-10T15:30:02.087Z,1024.62
2023-04-10T15:40:01.270Z,1024.43
2023-04-10T15:50:01.055Z,1024.19
2023-04-10T16:00:01.267Z,1023.95
2023-04-10T16:10:00.859Z,1023.72
2023-04-10T16:20:00.242Z,1023.55
2023-04-10T16:30:01.575Z,1023.36
2023-04-10T16:40:02.080Z,1023.27
2023-04-10T16:50:01.072Z,1023.17
2023-04-10T17:00:01.429Z,1023.06
2023-04-10T17:10:02.651Z,1022.89
2023-04-10T17:20:00.840Z,1022.71
2023-04-10T17:30:01.011Z,1022.66
2023-04-10T17:40:00.777Z,1022.45
2023-04-10T17:50:00.916Z,1022.27
2023-04-10T18:00:01.232Z,1022.16
2023-04-10T18:10:01.107Z,1021.98
2023-04-10T18:20:01.214Z,1022.07
2023-04-10T18:30:00.929Z,1022.02
2023-04-10T18:40:06.517Z,1021.96
2023-04-10T18:50:00.883Z,1021.92
2023-04-10T19:00:01.522Z,1021.70
2023-04-10T19:10:01.043Z,1021.61
2023-04-10T19:20:01.039Z,1021.43
2023-04-10T19:30:01.129Z,1021.28
2023-04-10T19:40:01.067Z,1021.14
2023-04-10T19:50:01.032Z,1021.04
2023-04-10T20:00:01.310Z,1020.90
2023-04-10T20:10:01.360Z,1020.72
2023-04-10T20:20:01.272Z,1020.44
2023-04-10T20:30:01.343Z,1020.36
2023-04-10T20:40:01.128Z,1020.16
2023-04-10T20:50:01.506Z,1020.12
2023-04-10T21:00:01.492Z,1020.11
2023-04-10T21:10:01.425Z,1020.03
2023-04-10T21:20:00.966Z,1019.85
2023-04-10T21:30:01.074Z,1019.88
2023-04-10T21:40:02.524Z,1019.73
2023-04-10T21:50:01.017Z,1019.65
2023-04-10T22:00:01.087Z,1019.32
2023-04-10T22:10:01.107Z,1019.19
2023-04-10T22:20:02.184Z,1018.97
2023-04-10T22:30:03.612Z,1018.85
2023-04-10T22:40:00.985Z,1018.61
2023-04-10T22:50:00.237Z,1018.53
2023-04-10T23:00:03.837Z,1018.45
2023-04-10T23:10:01.106Z,1018.33
2023-04-10T23:20:00.984Z,1018.16
2023-04-10T23:30:01.190Z,1017.95
2023-04-10T23:40:01.252Z,1017.62
